sensor_id;sensor_type;location;lat;lon;timestamp;P1;durP1;ratioP1;P2;durP2;ratioP2
9801;SDS011;4940;50.900;4.672;2022-12-18T00:01:00;29.70;;;12.10;;
9801;SDS011;4940;50.900;4.672;2022-12-18T00:03:32;28.13;;;11.70;;
9801;SDS011;4940;50.900;4.672;2022-12-18T00:06:00;30.00;;;11.83;;
9801;SDS011;4940;50.900;4.672;2022-12-18T00:08:27;26.13;;;11.30;;
9801;SDS011;4940;50.900;4.672;2022-12-18T00:10:55;26.47;;;11.13;;
9801;SDS011;4940;50.900;4.672;2022-12-18T00:13:22;26.87;;;11.63;;
9801;SDS011;4940;50.900;4.672;2022-12-18T00:15:49;30.77;;;12.07;;
9801;SDS011;4940;50.900;4.672;2022-12-18T00:18:17;25.97;;;11.43;;
9801;SDS011;4940;50.900;4.672;2022-12-18T00:20:45;35.93;;;13.60;;
9801;SDS011;4940;50.900;4.672;2022-12-18T00:23:13;28.97;;;11.77;;
9801;SDS011;4940;50.900;4.672;2022-12-18T00:25:40;26.33;;;11.37;;
9801;SDS011;4940;50.900;4.672;2022-12-18T00:28:07;24.23;;;10.87;;
9801;SDS011;4940;50.900;4.672;2022-12-18T00:30:35;26.20;;;10.93;;
9801;SDS011;4940;50.900;4.672;2022-12-18T00:33:02;26.53;;;11.57;;
9801;SDS011;4940;50.900;4.672;2022-12-18T00:35:30;25.13;;;12.10;;
9801;SDS011;4940;50.900;4.672;2022-12-18T00:38:00;25.93;;;11.60;;
9801;SDS011;4940;50.900;4.672;2022-12-18T00:40:27;32.73;;;11.93;;
9801;SDS011;4940;50.900;4.672;2022-12-18T00:42:54;28.37;;;11.43;;
9801;SDS011;4940;50.900;4.672;2022-12-18T00:45:21;30.93;;;11.97;;
9801;SDS011;4940;50.900;4.672;2022-12-18T00:47:48;33.07;;;12.33;;
9801;SDS011;4940;50.900;4.672;2022-12-18T00:50:15;30.47;;;12.20;;
9801;SDS011;4940;50.900;4.672;2022-12-18T00:52:43;25.50;;;10.70;;
9801;SDS011;4940;50.900;4.672;2022-12-18T00:55:12;27.27;;;11.47;;
9801;SDS011;4940;50.900;4.672;2022-12-18T00:57:39;24.70;;;11.03;;
9801;SDS011;4940;50.900;4.672;2022-12-18T01:00:07;21.87;;;10.60;;
9801;SDS011;4940;50.900;4.672;2022-12-18T01:02:36;26.23;;;10.73;;
9801;SDS011;4940;50.900;4.672;2022-12-18T01:05:04;27.07;;;10.70;;
9801;SDS011;4940;50.900;4.672;2022-12-18T01:07:31;21.87;;;10.80;;
9801;SDS011;4940;50.900;4.672;2022-12-18T01:09:59;23.43;;;11.00;;
9801;SDS011;4940;50.900;4.672;2022-12-18T01:12:27;22.17;;;9.50;;
9801;SDS011;4940;50.900;4.672;2022-12-18T01:14:54;26.47;;;10.57;;
9801;SDS011;4940;50.900;4.672;2022-12-18T01:17:22;26.70;;;10.37;;
9801;SDS011;4940;50.900;4.672;2022-12-18T01:19:49;26.47;;;10.73;;
9801;SDS011;4940;50.900;4.672;2022-12-18T01:22:17;29.77;;;12.27;;
9801;SDS011;4940;50.900;4.672;2022-12-18T01:24:44;21.93;;;9.60;;
9801;SDS011;4940;50.900;4.672;2022-12-18T01:27:11;30.23;;;10.37;;
9801;SDS011;4940;50.900;4.672;2022-12-18T01:29:40;27.50;;;9.63;;
9801;SDS011;4940;50.900;4.672;2022-12-18T01:32:07;25.60;;;10.03;;
9801;SDS011;4940;50.900;4.672;2022-12-18T01:34:35;25.73;;;11.20;;
9801;SDS011;4940;50.900;4.672;2022-12-18T01:37:02;22.90;;;10.20;;
9801;SDS011;4940;50.900;4.672;2022-12-18T01:39:30;27.87;;;10.07;;
9801;SDS011;4940;50.900;4.672;2022-12-18T01:41:57;23.00;;;10.67;;
9801;SDS011;4940;50.900;4.672;2022-12-18T01:47:31;24.00;;;9.17;;
9801;SDS011;4940;50.900;4.672;2022-12-18T01:50:02;23.30;;;9.67;;
9801;SDS011;4940;50.900;4.672;2022-12-18T01:52:33;22.87;;;10.40;;
9801;SDS011;4940;50.900;4.672;2022-12-18T01:55:02;26.67;;;9.73;;
9801;SDS011;4940;50.900;4.672;2022-12-18T01:57:31;30.37;;;11.17;;
9801;SDS011;4940;50.900;4.672;2022-12-18T02:00:00;25.20;;;9.47;;
9801;SDS011;4940;50.900;4.672;2022-12-18T02:02:31;24.20;;;10.43;;
9801;SDS011;4940;50.900;4.672;2022-12-18T02:04:59;23.63;;;10.60;;
9801;SDS011;4940;50.900;4.672;2022-12-18T02:07:29;22.83;;;10.33;;
9801;SDS011;4940;50.900;4.672;2022-12-18T02:10:05;21.23;;;9.53;;
9801;SDS011;4940;50.900;4.672;2022-12-18T02:12:40;17.67;;;9.03;;
9801;SDS011;4940;50.900;4.672;2022-12-18T02:15:11;29.90;;;10.27;;
9801;SDS011;4940;50.900;4.672;2022-12-18T02:17:44;27.43;;;9.47;;
9801;SDS011;4940;50.900;4.672;2022-12-18T02:20:17;22.17;;;9.83;;
9801;SDS011;4940;50.900;4.672;2022-12-18T02:22:55;18.03;;;9.40;;
9801;SDS011;4940;50.900;4.672;2022-12-18T02:25:39;22.17;;;10.13;;
9801;SDS011;4940;50.900;4.672;2022-12-18T02:28:13;18.90;;;8.30;;
9801;SDS011;4940;50.900;4.672;2022-12-18T02:30:46;19.67;;;8.87;;
9801;SDS011;4940;50.900;4.672;2022-12-18T02:33:15;24.03;;;9.37;;
9801;SDS011;4940;50.900;4.672;2022-12-18T02:35:42;20.03;;;8.73;;
9801;SDS011;4940;50.900;4.672;2022-12-18T02:38:12;25.27;;;9.83;;
9801;SDS011;4940;50.900;4.672;2022-12-18T02:40:40;23.13;;;8.70;;
9801;SDS011;4940;50.900;4.672;2022-12-18T02:43:09;19.30;;;7.93;;
9801;SDS011;4940;50.900;4.672;2022-12-18T02:45:47;22.40;;;9.37;;
9801;SDS011;4940;50.900;4.672;2022-12-18T02:48:16;19.03;;;7.77;;
9801;SDS011;4940;50.900;4.672;2022-12-18T02:50:48;17.40;;;7.77;;
9801;SDS011;4940;50.900;4.672;2022-12-18T02:53:24;15.07;;;7.87;;
9801;SDS011;4940;50.900;4.672;2022-12-18T02:56:03;27.27;;;9.97;;
9801;SDS011;4940;50.900;4.672;2022-12-18T02:58:38;17.37;;;7.63;;
9801;SDS011;4940;50.900;4.672;2022-12-18T03:01:15;18.87;;;8.07;;
9801;SDS011;4940;50.900;4.672;2022-12-18T03:03:50;20.03;;;8.87;;
9801;SDS011;4940;50.900;4.672;2022-12-18T03:06:23;23.63;;;8.73;;
9801;SDS011;4940;50.900;4.672;2022-12-18T03:08:54;16.87;;;7.07;;
9801;SDS011;4940;50.900;4.672;2022-12-18T03:11:25;20.93;;;8.73;;
9801;SDS011;4940;50.900;4.672;2022-12-18T03:14:15;22.37;;;9.37;;
9801;SDS011;4940;50.900;4.672;2022-12-18T03:16:45;24.60;;;7.93;;
9801;SDS011;4940;50.900;4.672;2022-12-18T03:19:16;17.27;;;7.73;;
9801;SDS011;4940;50.900;4.672;2022-12-18T03:21:47;16.33;;;7.17;;
9801;SDS011;4940;50.900;4.672;2022-12-18T03:24:18;14.77;;;6.83;;
9801;SDS011;4940;50.900;4.672;2022-12-18T03:26:48;16.37;;;7.53;;
9801;SDS011;4940;50.900;4.672;2022-12-18T03:29:20;12.77;;;7.03;;
9801;SDS011;4940;50.900;4.672;2022-12-18T03:31:53;14.90;;;6.83;;
9801;SDS011;4940;50.900;4.672;2022-12-18T03:34:23;28.93;;;9.03;;
9801;SDS011;4940;50.900;4.672;2022-12-18T03:36:55;23.87;;;8.73;;
9801;SDS011;4940;50.900;4.672;2022-12-18T03:39:23;16.60;;;7.37;;
9801;SDS011;4940;50.900;4.672;2022-12-18T03:41:51;18.80;;;7.83;;
9801;SDS011;4940;50.900;4.672;2022-12-18T03:44:26;12.13;;;6.97;;
9801;SDS011;4940;50.900;4.672;2022-12-18T03:46:58;18.30;;;7.53;;
9801;SDS011;4940;50.900;4.672;2022-12-18T03:49:33;21.33;;;8.37;;
9801;SDS011;4940;50.900;4.672;2022-12-18T03:52:03;16.10;;;7.60;;
9801;SDS011;4940;50.900;4.672;2022-12-18T03:54:33;19.77;;;8.07;;
9801;SDS011;4940;50.900;4.672;2022-12-18T03:57:03;18.40;;;8.17;;
9801;SDS011;4940;50.900;4.672;2022-12-18T03:59:33;17.90;;;7.20;;
9801;SDS011;4940;50.900;4.672;2022-12-18T04:02:02;17.77;;;7.63;;
9801;SDS011;4940;50.900;4.672;2022-12-18T04:04:33;18.30;;;7.67;;
9801;SDS011;4940;50.900;4.672;2022-12-18T04:07:01;13.03;;;6.37;;
9801;SDS011;4940;50.900;4.672;2022-12-18T04:09:29;14.90;;;6.87;;
9801;SDS011;4940;50.900;4.672;2022-12-18T04:11:58;15.50;;;6.77;;
9801;SDS011;4940;50.900;4.672;2022-12-18T04:14:25;14.40;;;7.67;;
9801;SDS011;4940;50.900;4.672;2022-12-18T04:16:52;13.30;;;6.70;;
9801;SDS011;4940;50.900;4.672;2022-12-18T04:19:21;14.70;;;7.30;;
9801;SDS011;4940;50.900;4.672;2022-12-18T04:21:48;17.87;;;6.87;;
9801;SDS011;4940;50.900;4.672;2022-12-18T04:24:16;17.73;;;7.50;;
9801;SDS011;4940;50.900;4.672;2022-12-18T04:26:43;18.87;;;7.53;;
9801;SDS011;4940;50.900;4.672;2022-12-18T04:29:10;13.03;;;6.53;;
9801;SDS011;4940;50.900;4.672;2022-12-18T04:31:38;17.70;;;7.17;;
9801;SDS011;4940;50.900;4.672;2022-12-18T04:34:05;14.20;;;6.33;;
9801;SDS011;4940;50.900;4.672;2022-12-18T04:36:34;15.67;;;6.20;;
9801;SDS011;4940;50.900;4.672;2022-12-18T04:39:02;11.87;;;6.03;;
9801;SDS011;4940;50.900;4.672;2022-12-18T04:41:29;18.23;;;7.10;;
9801;SDS011;4940;50.900;4.672;2022-12-18T04:43:57;13.90;;;7.03;;
9801;SDS011;4940;50.900;4.672;2022-12-18T04:46:24;13.67;;;7.23;;
9801;SDS011;4940;50.900;4.672;2022-12-18T04:48:52;14.93;;;6.50;;
9801;SDS011;4940;50.900;4.672;2022-12-18T04:51:19;13.93;;;6.90;;
9801;SDS011;4940;50.900;4.672;2022-12-18T04:53:48;11.67;;;5.77;;
9801;SDS011;4940;50.900;4.672;2022-12-18T04:56:15;11.70;;;6.20;;
9801;SDS011;4940;50.900;4.672;2022-12-18T04:58:43;13.87;;;7.10;;
9801;SDS011;4940;50.900;4.672;2022-12-18T05:01:11;17.83;;;7.50;;
9801;SDS011;4940;50.900;4.672;2022-12-18T05:03:40;20.07;;;6.83;;
9801;SDS011;4940;50.900;4.672;2022-12-18T05:06:07;17.60;;;6.87;;
9801;SDS011;4940;50.900;4.672;2022-12-18T05:08:35;19.00;;;7.13;;
9801;SDS011;4940;50.900;4.672;2022-12-18T05:11:04;11.40;;;6.03;;
9801;SDS011;4940;50.900;4.672;2022-12-18T05:13:33;18.40;;;7.07;;
9801;SDS011;4940;50.900;4.672;2022-12-18T05:16:01;22.30;;;7.50;;
9801;SDS011;4940;50.900;4.672;2022-12-18T05:18:28;14.10;;;6.10;;
9801;SDS011;4940;50.900;4.672;2022-12-18T05:20:56;16.20;;;6.40;;
9801;SDS011;4940;50.900;4.672;2022-12-18T05:23:23;11.13;;;6.00;;
9801;SDS011;4940;50.900;4.672;2022-12-18T05:25:51;13.90;;;6.53;;
9801;SDS011;4940;50.900;4.672;2022-12-18T05:28:21;15.83;;;6.93;;
9801;SDS011;4940;50.900;4.672;2022-12-18T05:30:49;16.00;;;6.97;;
9801;SDS011;4940;50.900;4.672;2022-12-18T05:33:17;13.80;;;6.53;;
9801;SDS011;4940;50.900;4.672;2022-12-18T05:35:49;11.67;;;6.27;;
9801;SDS011;4940;50.900;4.672;2022-12-18T05:38:17;13.73;;;7.30;;
9801;SDS011;4940;50.900;4.672;2022-12-18T05:40:44;15.30;;;6.67;;
9801;SDS011;4940;50.900;4.672;2022-12-18T05:43:12;14.63;;;6.87;;
9801;SDS011;4940;50.900;4.672;2022-12-18T05:45:41;18.03;;;6.60;;
9801;SDS011;4940;50.900;4.672;2022-12-18T05:48:08;14.80;;;6.03;;
9801;SDS011;4940;50.900;4.672;2022-12-18T05:50:36;14.97;;;6.03;;
9801;SDS011;4940;50.900;4.672;2022-12-18T05:53:04;18.93;;;6.50;;
9801;SDS011;4940;50.900;4.672;2022-12-18T05:55:32;17.33;;;6.83;;
9801;SDS011;4940;50.900;4.672;2022-12-18T05:57:59;14.03;;;6.37;;
9801;SDS011;4940;50.900;4.672;2022-12-18T06:00:27;13.10;;;6.67;;
9801;SDS011;4940;50.900;4.672;2022-12-18T06:02:56;20.40;;;6.87;;
9801;SDS011;4940;50.900;4.672;2022-12-18T06:05:23;15.00;;;7.13;;
9801;SDS011;4940;50.900;4.672;2022-12-18T06:07:50;17.67;;;7.30;;
9801;SDS011;4940;50.900;4.672;2022-12-18T06:10:18;12.00;;;6.63;;
9801;SDS011;4940;50.900;4.672;2022-12-18T06:12:45;15.60;;;6.97;;
9801;SDS011;4940;50.900;4.672;2022-12-18T06:15:13;15.33;;;6.07;;
9801;SDS011;4940;50.900;4.672;2022-12-18T06:17:40;13.70;;;6.50;;
9801;SDS011;4940;50.900;4.672;2022-12-18T06:20:09;16.97;;;7.13;;
9801;SDS011;4940;50.900;4.672;2022-12-18T06:22:37;11.63;;;5.90;;
9801;SDS011;4940;50.900;4.672;2022-12-18T06:25:04;20.47;;;5.73;;
9801;SDS011;4940;50.900;4.672;2022-12-18T06:27:32;14.43;;;6.63;;
9801;SDS011;4940;50.900;4.672;2022-12-18T06:30:00;14.87;;;6.33;;
9801;SDS011;4940;50.900;4.672;2022-12-18T06:32:27;14.60;;;6.90;;
9801;SDS011;4940;50.900;4.672;2022-12-18T06:34:54;15.37;;;6.77;;
9801;SDS011;4940;50.900;4.672;2022-12-18T06:37:24;16.37;;;7.43;;
9801;SDS011;4940;50.900;4.672;2022-12-18T06:39:52;12.53;;;7.30;;
9801;SDS011;4940;50.900;4.672;2022-12-18T06:42:19;13.63;;;6.37;;
9801;SDS011;4940;50.900;4.672;2022-12-18T06:44:47;18.37;;;7.80;;
9801;SDS011;4940;50.900;4.672;2022-12-18T06:47:14;24.90;;;8.03;;
9801;SDS011;4940;50.900;4.672;2022-12-18T06:49:42;20.57;;;7.33;;
9801;SDS011;4940;50.900;4.672;2022-12-18T06:52:09;14.33;;;6.97;;
9801;SDS011;4940;50.900;4.672;2022-12-18T06:54:38;15.80;;;7.27;;
9801;SDS011;4940;50.900;4.672;2022-12-18T06:57:05;16.73;;;7.13;;
9801;SDS011;4940;50.900;4.672;2022-12-18T06:59:33;19.53;;;8.13;;
9801;SDS011;4940;50.900;4.672;2022-12-18T07:02:00;20.30;;;7.90;;
9801;SDS011;4940;50.900;4.672;2022-12-18T07:04:28;13.90;;;7.03;;
9801;SDS011;4940;50.900;4.672;2022-12-18T07:06:55;16.67;;;7.53;;
9801;SDS011;4940;50.900;4.672;2022-12-18T07:09:23;14.97;;;6.53;;
9801;SDS011;4940;50.900;4.672;2022-12-18T07:11:52;16.30;;;7.70;;
9801;SDS011;4940;50.900;4.672;2022-12-18T07:14:19;12.27;;;6.67;;
9801;SDS011;4940;50.900;4.672;2022-12-18T07:16:46;21.03;;;8.17;;
9801;SDS011;4940;50.900;4.672;2022-12-18T07:19:14;14.87;;;7.60;;
9801;SDS011;4940;50.900;4.672;2022-12-18T07:21:41;24.83;;;7.87;;
9801;SDS011;4940;50.900;4.672;2022-12-18T07:24:09;20.90;;;7.07;;
9801;SDS011;4940;50.900;4.672;2022-12-18T07:26:36;15.03;;;6.97;;
9801;SDS011;4940;50.900;4.672;2022-12-18T07:29:05;14.60;;;6.87;;
9801;SDS011;4940;50.900;4.672;2022-12-18T07:31:32;18.97;;;7.40;;
9801;SDS011;4940;50.900;4.672;2022-12-18T07:33:59;18.63;;;7.47;;
9801;SDS011;4940;50.900;4.672;2022-12-18T07:36:27;16.23;;;7.50;;
9801;SDS011;4940;50.900;4.672;2022-12-18T07:38:54;15.07;;;7.10;;
9801;SDS011;4940;50.900;4.672;2022-12-18T07:41:21;14.83;;;6.57;;
9801;SDS011;4940;50.900;4.672;2022-12-18T07:43:49;17.33;;;7.03;;
9801;SDS011;4940;50.900;4.672;2022-12-18T07:46:17;14.17;;;6.50;;
9801;SDS011;4940;50.900;4.672;2022-12-18T07:48:45;13.50;;;5.60;;
9801;SDS011;4940;50.900;4.672;2022-12-18T07:51:12;16.30;;;7.07;;
9801;SDS011;4940;50.900;4.672;2022-12-18T07:53:40;13.80;;;6.80;;
9801;SDS011;4940;50.900;4.672;2022-12-18T07:56:08;13.60;;;6.97;;
9801;SDS011;4940;50.900;4.672;2022-12-18T07:58:37;18.07;;;7.90;;
9801;SDS011;4940;50.900;4.672;2022-12-18T08:01:05;19.83;;;7.13;;
9801;SDS011;4940;50.900;4.672;2022-12-18T08:03:34;14.57;;;7.00;;
9801;SDS011;4940;50.900;4.672;2022-12-18T08:06:02;22.77;;;8.17;;
9801;SDS011;4940;50.900;4.672;2022-12-18T08:08:32;13.17;;;6.37;;
9801;SDS011;4940;50.900;4.672;2022-12-18T08:11:00;20.27;;;7.60;;
9801;SDS011;4940;50.900;4.672;2022-12-18T08:13:27;16.60;;;7.57;;
9801;SDS011;4940;50.900;4.672;2022-12-18T08:15:58;13.97;;;7.60;;
9801;SDS011;4940;50.900;4.672;2022-12-18T08:18:27;16.10;;;8.10;;
9801;SDS011;4940;50.900;4.672;2022-12-18T08:20:55;16.50;;;7.30;;
9801;SDS011;4940;50.900;4.672;2022-12-18T08:23:23;17.73;;;7.63;;
9801;SDS011;4940;50.900;4.672;2022-12-18T08:25:50;14.27;;;6.70;;
9801;SDS011;4940;50.900;4.672;2022-12-18T08:28:17;17.20;;;6.63;;
9801;SDS011;4940;50.900;4.672;2022-12-18T08:30:45;14.57;;;7.53;;
9801;SDS011;4940;50.900;4.672;2022-12-18T08:33:13;12.60;;;5.73;;
9801;SDS011;4940;50.900;4.672;2022-12-18T08:35:40;17.73;;;7.67;;
9801;SDS011;4940;50.900;4.672;2022-12-18T08:38:09;17.93;;;7.13;;
9801;SDS011;4940;50.900;4.672;2022-12-18T08:40:36;19.07;;;6.43;;
9801;SDS011;4940;50.900;4.672;2022-12-18T08:43:04;12.57;;;5.77;;
9801;SDS011;4940;50.900;4.672;2022-12-18T08:45:49;17.53;;;7.20;;
9801;SDS011;4940;50.900;4.672;2022-12-18T08:48:16;15.13;;;6.37;;
9801;SDS011;4940;50.900;4.672;2022-12-18T08:50:44;19.33;;;7.50;;
9801;SDS011;4940;50.900;4.672;2022-12-18T08:53:21;21.23;;;7.20;;
9801;SDS011;4940;50.900;4.672;2022-12-18T08:55:49;19.33;;;7.63;;
9801;SDS011;4940;50.900;4.672;2022-12-18T08:58:16;18.53;;;7.63;;
9801;SDS011;4940;50.900;4.672;2022-12-18T09:00:44;18.50;;;8.80;;
9801;SDS011;4940;50.900;4.672;2022-12-18T09:03:11;15.70;;;7.30;;
9801;SDS011;4940;50.900;4.672;2022-12-18T09:05:39;15.97;;;6.90;;
9801;SDS011;4940;50.900;4.672;2022-12-18T09:08:06;19.13;;;8.20;;
9801;SDS011;4940;50.900;4.672;2022-12-18T09:10:40;19.03;;;8.23;;
9801;SDS011;4940;50.900;4.672;2022-12-18T09:13:08;17.80;;;8.07;;
9801;SDS011;4940;50.900;4.672;2022-12-18T09:15:39;17.30;;;7.47;;
9801;SDS011;4940;50.900;4.672;2022-12-18T09:18:07;15.33;;;7.77;;
9801;SDS011;4940;50.900;4.672;2022-12-18T09:20:35;23.70;;;8.60;;
9801;SDS011;4940;50.900;4.672;2022-12-18T09:23:02;16.97;;;8.07;;
9801;SDS011;4940;50.900;4.672;2022-12-18T09:25:31;20.23;;;8.57;;
9801;SDS011;4940;50.900;4.672;2022-12-18T09:28:02;19.80;;;9.03;;
9801;SDS011;4940;50.900;4.672;2022-12-18T09:30:32;17.40;;;7.90;;
9801;SDS011;4940;50.900;4.672;2022-12-18T09:32:59;16.63;;;7.97;;
9801;SDS011;4940;50.900;4.672;2022-12-18T09:35:26;16.40;;;7.90;;
9801;SDS011;4940;50.900;4.672;2022-12-18T09:37:54;12.87;;;7.37;;
9801;SDS011;4940;50.900;4.672;2022-12-18T09:40:22;21.53;;;8.53;;
9801;SDS011;4940;50.900;4.672;2022-12-18T09:42:53;15.40;;;7.63;;
9801;SDS011;4940;50.900;4.672;2022-12-18T09:45:24;16.40;;;7.83;;
9801;SDS011;4940;50.900;4.672;2022-12-18T09:47:51;18.23;;;8.20;;
9801;SDS011;4940;50.900;4.672;2022-12-18T09:50:22;19.73;;;8.50;;
9801;SDS011;4940;50.900;4.672;2022-12-18T09:52:54;15.87;;;7.43;;
9801;SDS011;4940;50.900;4.672;2022-12-18T09:55:24;18.97;;;8.47;;
9801;SDS011;4940;50.900;4.672;2022-12-18T09:57:55;27.40;;;8.70;;
9801;SDS011;4940;50.900;4.672;2022-12-18T10:00:29;17.50;;;7.77;;
9801;SDS011;4940;50.900;4.672;2022-12-18T10:02:58;18.33;;;8.83;;
9801;SDS011;4940;50.900;4.672;2022-12-18T10:05:30;16.60;;;7.60;;
9801;SDS011;4940;50.900;4.672;2022-12-18T10:08:05;21.77;;;8.43;;
9801;SDS011;4940;50.900;4.672;2022-12-18T10:10:38;16.47;;;7.37;;
9801;SDS011;4940;50.900;4.672;2022-12-18T10:13:13;16.90;;;8.10;;
9801;SDS011;4940;50.900;4.672;2022-12-18T10:15:50;17.00;;;7.67;;
9801;SDS011;4940;50.900;4.672;2022-12-18T10:18:29;19.17;;;9.27;;
9801;SDS011;4940;50.900;4.672;2022-12-18T10:21:09;15.30;;;8.17;;
9801;SDS011;4940;50.900;4.672;2022-12-18T10:23:39;16.53;;;8.13;;
9801;SDS011;4940;50.900;4.672;2022-12-18T10:26:15;18.37;;;8.73;;
9801;SDS011;4940;50.900;4.672;2022-12-18T10:28:43;20.10;;;8.90;;
9801;SDS011;4940;50.900;4.672;2022-12-18T10:31:14;13.70;;;7.63;;
9801;SDS011;4940;50.900;4.672;2022-12-18T10:33:43;14.13;;;7.97;;
9801;SDS011;4940;50.900;4.672;2022-12-18T10:36:10;17.17;;;7.90;;
9801;SDS011;4940;50.900;4.672;2022-12-18T10:38:38;13.17;;;6.03;;
9801;SDS011;4940;50.900;4.672;2022-12-18T10:41:08;11.43;;;5.87;;
9801;SDS011;4940;50.900;4.672;2022-12-18T10:44:09;16.50;;;7.47;;
9801;SDS011;4940;50.900;4.672;2022-12-18T10:46:40;10.77;;;5.87;;
9801;SDS011;4940;50.900;4.672;2022-12-18T10:49:17;17.10;;;7.60;;
9801;SDS011;4940;50.900;4.672;2022-12-18T10:51:45;18.57;;;8.27;;
9801;SDS011;4940;50.900;4.672;2022-12-18T10:54:13;13.37;;;6.77;;
9801;SDS011;4940;50.900;4.672;2022-12-18T10:56:43;15.97;;;7.10;;
9801;SDS011;4940;50.900;4.672;2022-12-18T10:59:11;17.23;;;7.43;;
9801;SDS011;4940;50.900;4.672;2022-12-18T11:01:47;13.93;;;7.57;;
9801;SDS011;4940;50.900;4.672;2022-12-18T11:04:17;16.87;;;7.70;;
9801;SDS011;4940;50.900;4.672;2022-12-18T11:06:58;15.90;;;7.30;;
9801;SDS011;4940;50.900;4.672;2022-12-18T11:09:27;15.50;;;7.17;;
9801;SDS011;4940;50.900;4.672;2022-12-18T11:11:57;15.70;;;7.47;;
9801;SDS011;4940;50.900;4.672;2022-12-18T11:14:27;14.80;;;7.73;;
9801;SDS011;4940;50.900;4.672;2022-12-18T11:16:57;14.17;;;7.10;;
9801;SDS011;4940;50.900;4.672;2022-12-18T11:19:30;15.93;;;7.07;;
9801;SDS011;4940;50.900;4.672;2022-12-18T11:22:01;16.20;;;7.37;;
9801;SDS011;4940;50.900;4.672;2022-12-18T11:24:49;14.87;;;7.30;;
9801;SDS011;4940;50.900;4.672;2022-12-18T11:27:21;16.67;;;7.00;;
9801;SDS011;4940;50.900;4.672;2022-12-18T11:29:49;15.43;;;7.70;;
9801;SDS011;4940;50.900;4.672;2022-12-18T11:32:32;16.30;;;8.07;;
9801;SDS011;4940;50.900;4.672;2022-12-18T11:35:03;13.07;;;7.00;;
9801;SDS011;4940;50.900;4.672;2022-12-18T11:37:37;12.50;;;6.07;;
9801;SDS011;4940;50.900;4.672;2022-12-18T11:40:07;14.53;;;7.03;;
9801;SDS011;4940;50.900;4.672;2022-12-18T11:42:41;16.00;;;8.03;;
9801;SDS011;4940;50.900;4.672;2022-12-18T11:45:24;15.57;;;7.50;;
9801;SDS011;4940;50.900;4.672;2022-12-18T11:47:57;17.67;;;8.30;;
9801;SDS011;4940;50.900;4.672;2022-12-18T11:50:29;19.70;;;8.37;;
9801;SDS011;4940;50.900;4.672;2022-12-18T11:53:04;15.93;;;8.43;;
9801;SDS011;4940;50.900;4.672;2022-12-18T11:55:34;17.80;;;8.73;;
9801;SDS011;4940;50.900;4.672;2022-12-18T11:58:10;15.37;;;7.90;;
9801;SDS011;4940;50.900;4.672;2022-12-18T12:00:42;16.57;;;8.63;;
9801;SDS011;4940;50.900;4.672;2022-12-18T12:03:39;14.70;;;8.23;;
9801;SDS011;4940;50.900;4.672;2022-12-18T12:06:16;25.47;;;10.50;;
9801;SDS011;4940;50.900;4.672;2022-12-18T12:08:54;17.40;;;8.60;;
9801;SDS011;4940;50.900;4.672;2022-12-18T12:11:35;12.47;;;7.40;;
9801;SDS011;4940;50.900;4.672;2022-12-18T12:14:17;14.17;;;7.33;;
9801;SDS011;4940;50.900;4.672;2022-12-18T12:16:53;16.33;;;8.20;;
9801;SDS011;4940;50.900;4.672;2022-12-18T12:19:29;16.67;;;8.23;;
9801;SDS011;4940;50.900;4.672;2022-12-18T12:22:04;12.30;;;7.60;;
9801;SDS011;4940;50.900;4.672;2022-12-18T12:24:39;14.93;;;7.60;;
9801;SDS011;4940;50.900;4.672;2022-12-18T12:27:19;18.43;;;8.73;;
9801;SDS011;4940;50.900;4.672;2022-12-18T12:29:50;21.23;;;9.73;;
9801;SDS011;4940;50.900;4.672;2022-12-18T12:32:30;20.77;;;9.23;;
9801;SDS011;4940;50.900;4.672;2022-12-18T12:35:21;14.50;;;8.03;;
9801;SDS011;4940;50.900;4.672;2022-12-18T12:37:59;15.87;;;8.13;;
9801;SDS011;4940;50.900;4.672;2022-12-18T12:40:34;16.90;;;8.17;;
9801;SDS011;4940;50.900;4.672;2022-12-18T12:43:07;18.47;;;7.53;;
9801;SDS011;4940;50.900;4.672;2022-12-18T12:45:44;16.17;;;7.93;;
9801;SDS011;4940;50.900;4.672;2022-12-18T12:48:16;18.03;;;8.70;;
9801;SDS011;4940;50.900;4.672;2022-12-18T12:50:49;15.10;;;7.63;;
9801;SDS011;4940;50.900;4.672;2022-12-18T12:53:20;13.10;;;7.50;;
9801;SDS011;4940;50.900;4.672;2022-12-18T12:55:52;15.03;;;7.67;;
9801;SDS011;4940;50.900;4.672;2022-12-18T12:58:23;16.43;;;8.07;;
9801;SDS011;4940;50.900;4.672;2022-12-18T13:01:00;15.70;;;8.33;;
9801;SDS011;4940;50.900;4.672;2022-12-18T13:03:39;14.33;;;8.00;;
9801;SDS011;4940;50.900;4.672;2022-12-18T13:06:15;15.53;;;7.97;;
9801;SDS011;4940;50.900;4.672;2022-12-18T13:08:54;22.03;;;9.73;;
9801;SDS011;4940;50.900;4.672;2022-12-18T13:11:28;17.17;;;9.43;;
9801;SDS011;4940;50.900;4.672;2022-12-18T13:14:29;20.83;;;9.63;;
9801;SDS011;4940;50.900;4.672;2022-12-18T13:20:07;23.77;;;10.50;;
9801;SDS011;4940;50.900;4.672;2022-12-18T13:22:38;19.27;;;9.40;;
9801;SDS011;4940;50.900;4.672;2022-12-18T13:28:02;16.07;;;8.73;;
9801;SDS011;4940;50.900;4.672;2022-12-18T13:30:45;17.07;;;7.83;;
9801;SDS011;4940;50.900;4.672;2022-12-18T13:36:12;19.00;;;8.23;;
9801;SDS011;4940;50.900;4.672;2022-12-18T13:48:15;13.53;;;7.93;;
9801;SDS011;4940;50.900;4.672;2022-12-18T13:50:48;15.10;;;7.43;;
9801;SDS011;4940;50.900;4.672;2022-12-18T13:53:18;15.63;;;7.83;;
9801;SDS011;4940;50.900;4.672;2022-12-18T13:55:50;16.33;;;7.57;;
9801;SDS011;4940;50.900;4.672;2022-12-18T13:58:18;15.60;;;7.37;;
9801;SDS011;4940;50.900;4.672;2022-12-18T14:00:45;17.50;;;8.70;;
9801;SDS011;4940;50.900;4.672;2022-12-18T14:03:18;16.40;;;7.47;;
9801;SDS011;4940;50.900;4.672;2022-12-18T14:05:45;16.83;;;8.27;;
9801;SDS011;4940;50.900;4.672;2022-12-18T14:08:20;16.67;;;7.43;;
9801;SDS011;4940;50.900;4.672;2022-12-18T14:10:48;16.60;;;7.87;;
9801;SDS011;4940;50.900;4.672;2022-12-18T14:13:23;17.03;;;8.27;;
9801;SDS011;4940;50.900;4.672;2022-12-18T14:15:53;17.43;;;8.17;;
9801;SDS011;4940;50.900;4.672;2022-12-18T14:18:25;18.13;;;8.90;;
9801;SDS011;4940;50.900;4.672;2022-12-18T14:20:56;17.00;;;8.03;;
9801;SDS011;4940;50.900;4.672;2022-12-18T14:23:31;17.23;;;9.00;;
9801;SDS011;4940;50.900;4.672;2022-12-18T14:25:59;20.83;;;8.40;;
9801;SDS011;4940;50.900;4.672;2022-12-18T14:28:28;18.03;;;8.77;;
9801;SDS011;4940;50.900;4.672;2022-12-18T14:30:56;21.30;;;9.33;;
9801;SDS011;4940;50.900;4.672;2022-12-18T14:33:23;21.07;;;9.23;;
9801;SDS011;4940;50.900;4.672;2022-12-18T14:35:55;19.33;;;8.80;;
9801;SDS011;4940;50.900;4.672;2022-12-18T14:38:25;18.37;;;8.47;;
9801;SDS011;4940;50.900;4.672;2022-12-18T14:40:55;20.13;;;8.27;;
9801;SDS011;4940;50.900;4.672;2022-12-18T14:43:23;20.10;;;9.70;;
9801;SDS011;4940;50.900;4.672;2022-12-18T14:45:52;18.97;;;9.23;;
9801;SDS011;4940;50.900;4.672;2022-12-18T14:48:21;19.03;;;8.60;;
9801;SDS011;4940;50.900;4.672;2022-12-18T14:50:59;22.73;;;9.37;;
9801;SDS011;4940;50.900;4.672;2022-12-18T14:53:30;18.00;;;8.50;;
9801;SDS011;4940;50.900;4.672;2022-12-18T14:56:00;20.77;;;9.27;;
9801;SDS011;4940;50.900;4.672;2022-12-18T14:58:28;17.30;;;9.37;;
9801;SDS011;4940;50.900;4.672;2022-12-18T15:00:56;18.90;;;8.43;;
9801;SDS011;4940;50.900;4.672;2022-12-18T15:03:24;22.00;;;9.20;;
9801;SDS011;4940;50.900;4.672;2022-12-18T15:05:52;16.30;;;7.67;;
9801;SDS011;4940;50.900;4.672;2022-12-18T15:08:30;18.80;;;9.33;;
9801;SDS011;4940;50.900;4.672;2022-12-18T15:11:00;16.70;;;8.10;;
9801;SDS011;4940;50.900;4.672;2022-12-18T15:13:27;20.83;;;8.57;;
9801;SDS011;4940;50.900;4.672;2022-12-18T15:15:56;18.97;;;9.10;;
9801;SDS011;4940;50.900;4.672;2022-12-18T15:18:29;21.13;;;9.00;;
9801;SDS011;4940;50.900;4.672;2022-12-18T15:20:59;18.63;;;9.50;;
9801;SDS011;4940;50.900;4.672;2022-12-18T15:23:35;18.97;;;8.57;;
9801;SDS011;4940;50.900;4.672;2022-12-18T15:26:04;19.93;;;9.20;;
9801;SDS011;4940;50.900;4.672;2022-12-18T15:28:34;21.73;;;9.07;;
9801;SDS011;4940;50.900;4.672;2022-12-18T15:31:06;20.03;;;7.83;;
9801;SDS011;4940;50.900;4.672;2022-12-18T15:33:59;15.30;;;7.93;;
9801;SDS011;4940;50.900;4.672;2022-12-18T15:36:31;21.93;;;8.63;;
9801;SDS011;4940;50.900;4.672;2022-12-18T15:39:02;18.17;;;8.97;;
9801;SDS011;4940;50.900;4.672;2022-12-18T15:41:30;20.73;;;8.77;;